sensor_id;sensor_type;location;lat;lon;timestamp;temperature;humidity
506;DHT22;551;48.524;9.056;2023-03-01T00:00:26;1.40;1.00
506;DHT22;551;48.524;9.056;2023-03-01T00:02:52;1.40;1.00
506;DHT22;551;48.524;9.056;2023-03-01T00:05:17;1.40;1.00
506;DHT22;551;48.524;9.056;2023-03-01T00:07:43;1.30;1.00
506;DHT22;551;48.524;9.056;2023-03-01T00:10:09;1.30;1.00
506;DHT22;551;48.524;9.056;2023-03-01T00:12:35;1.30;1.00
506;DHT22;551;48.524;9.056;2023-03-01T00:15:01;1.20;1.00
506;DHT22;551;48.524;9.056;2023-03-01T00:17:27;1.20;1.00
506;DHT22;551;48.524;9.056;2023-03-01T00:19:53;1.20;1.00
506;DHT22;551;48.524;9.056;2023-03-01T00:22:19;1.20;1.00
506;DHT22;551;48.524;9.056;2023-03-01T00:24:44;1.20;1.00
506;DHT22;551;48.524;9.056;2023-03-01T00:27:10;1.20;1.00
506;DHT22;551;48.524;9.056;2023-03-01T00:29:35;1.10;1.00
506;DHT22;551;48.524;9.056;2023-03-01T00:32:01;1.10;1.00
506;DHT22;551;48.524;9.056;2023-03-01T00:34:27;1.00;1.00
506;DHT22;551;48.524;9.056;2023-03-01T00:36:52;1.00;1.00
506;DHT22;551;48.524;9.056;2023-03-01T00:39:18;0.90;1.00
506;DHT22;551;48.524;9.056;2023-03-01T00:41:43;0.90;1.00
506;DHT22;551;48.524;9.056;2023-03-01T00:44:10;0.90;1.00
506;DHT22;551;48.524;9.056;2023-03-01T00:46:35;0.90;1.00
506;DHT22;551;48.524;9.056;2023-03-01T00:49:01;0.90;1.00
506;DHT22;551;48.524;9.056;2023-03-01T00:51:28;0.80;1.00
506;DHT22;551;48.524;9.056;2023-03-01T00:53:55;0.80;1.00
506;DHT22;551;48.524;9.056;2023-03-01T00:56:22;0.80;1.00
506;DHT22;551;48.524;9.056;2023-03-01T00:58:47;0.70;1.00
506;DHT22;551;48.524;9.056;2023-03-01T01:01:16;0.70;1.00
506;DHT22;551;48.524;9.056;2023-03-01T01:06:21;0.60;1.00
506;DHT22;551;48.524;9.056;2023-03-01T01:08:47;0.60;1.00
506;DHT22;551;48.524;9.056;2023-03-01T01:11:13;0.50;1.00
506;DHT22;551;48.524;9.056;2023-03-01T01:13:39;0.50;1.00
506;DHT22;551;48.524;9.056;2023-03-01T01:16:06;0.50;1.00
506;DHT22;551;48.524;9.056;2023-03-01T01:18:31;0.50;1.00
506;DHT22;551;48.524;9.056;2023-03-01T01:20:57;0.40;1.00
506;DHT22;551;48.524;9.056;2023-03-01T01:23:23;0.40;1.00
506;DHT22;551;48.524;9.056;2023-03-01T01:25:48;0.40;1.00
506;DHT22;551;48.524;9.056;2023-03-01T01:28:14;0.30;1.00
506;DHT22;551;48.524;9.056;2023-03-01T01:30:39;0.30;1.00
506;DHT22;551;48.524;9.056;2023-03-01T01:33:05;0.30;1.00
506;DHT22;551;48.524;9.056;2023-03-01T01:35:30;0.20;1.00
506;DHT22;551;48.524;9.056;2023-03-01T01:37:56;0.20;1.00
506;DHT22;551;48.524;9.056;2023-03-01T01:40:21;0.10;1.00
506;DHT22;551;48.524;9.056;2023-03-01T01:42:47;0.10;1.00
506;DHT22;551;48.524;9.056;2023-03-01T01:45:39;0.10;1.00
506;DHT22;551;48.524;9.056;2023-03-01T01:48:07;0.10;1.00
506;DHT22;551;48.524;9.056;2023-03-01T01:50:36;0.20;1.00
506;DHT22;551;48.524;9.056;2023-03-01T01:53:09;0.30;1.00
506;DHT22;551;48.524;9.056;2023-03-01T01:55:36;0.40;1.00
506;DHT22;551;48.524;9.056;2023-03-01T01:58:06;0.50;1.00
506;DHT22;551;48.524;9.056;2023-03-01T02:00:32;0.70;1.00
506;DHT22;551;48.524;9.056;2023-03-01T02:03:00;0.80;1.00
506;DHT22;551;48.524;9.056;2023-03-01T02:07:59;1.20;1.00
506;DHT22;551;48.524;9.056;2023-03-01T02:10:25;1.20;1.00
506;DHT22;551;48.524;9.056;2023-03-01T02:12:52;1.30;1.00
506;DHT22;551;48.524;9.056;2023-03-01T02:15:18;1.40;1.00
506;DHT22;551;48.524;9.056;2023-03-01T02:17:44;1.40;1.00
506;DHT22;551;48.524;9.056;2023-03-01T02:22:54;1.40;1.00
506;DHT22;551;48.524;9.056;2023-03-01T02:30:46;1.60;1.00
506;DHT22;551;48.524;9.056;2023-03-01T02:33:33;1.70;1.00
506;DHT22;551;48.524;9.056;2023-03-01T02:36:36;1.80;1.00
506;DHT22;551;48.524;9.056;2023-03-01T02:38:57;1.80;1.00
506;DHT22;551;48.524;9.056;2023-03-01T02:41:25;1.80;1.00
506;DHT22;551;48.524;9.056;2023-03-01T02:43:51;1.80;1.00
506;DHT22;551;48.524;9.056;2023-03-01T02:46:21;1.70;1.00
506;DHT22;551;48.524;9.056;2023-03-01T02:48:55;1.70;1.00
506;DHT22;551;48.524;9.056;2023-03-01T02:51:42;1.80;1.00
506;DHT22;551;48.524;9.056;2023-03-01T02:56:43;1.80;1.00
506;DHT22;551;48.524;9.056;2023-03-01T02:59:09;1.80;1.00
506;DHT22;551;48.524;9.056;2023-03-01T03:01:36;1.80;1.00
506;DHT22;551;48.524;9.056;2023-03-01T03:04:06;1.80;1.00
506;DHT22;551;48.524;9.056;2023-03-01T03:06:33;1.90;1.00
506;DHT22;551;48.524;9.056;2023-03-01T03:08:59;2.10;1.00
506;DHT22;551;48.524;9.056;2023-03-01T03:11:25;2.20;1.00
506;DHT22;551;48.524;9.056;2023-03-01T03:13:51;2.20;1.00
506;DHT22;551;48.524;9.056;2023-03-01T03:16:19;2.10;1.00
506;DHT22;551;48.524;9.056;2023-03-01T03:18:44;2.20;1.00
506;DHT22;551;48.524;9.056;2023-03-01T03:21:12;2.20;1.00
506;DHT22;551;48.524;9.056;2023-03-01T03:23:38;2.40;1.00
506;DHT22;551;48.524;9.056;2023-03-01T03:26:05;2.70;1.00
506;DHT22;551;48.524;9.056;2023-03-01T03:28:31;2.60;1.00
506;DHT22;551;48.524;9.056;2023-03-01T03:30:57;2.30;1.00
506;DHT22;551;48.524;9.056;2023-03-01T03:33:23;2.30;1.00
506;DHT22;551;48.524;9.056;2023-03-01T03:35:49;2.20;1.00
506;DHT22;551;48.524;9.056;2023-03-01T03:38:18;2.10;1.00
506;DHT22;551;48.524;9.056;2023-03-01T03:40:50;2.10;1.00
506;DHT22;551;48.524;9.056;2023-03-01T03:43:18;2.10;1.00
506;DHT22;551;48.524;9.056;2023-03-01T03:45:46;2.10;1.00
506;DHT22;551;48.524;9.056;2023-03-01T03:48:12;2.00;1.00
506;DHT22;551;48.524;9.056;2023-03-01T03:50:39;2.10;1.00
506;DHT22;551;48.524;9.056;2023-03-01T03:53:08;2.00;1.00
506;DHT22;551;48.524;9.056;2023-03-01T03:55:35;2.00;1.00
506;DHT22;551;48.524;9.056;2023-03-01T03:58:05;1.90;1.00
506;DHT22;551;48.524;9.056;2023-03-01T04:00:33;2.00;1.00
506;DHT22;551;48.524;9.056;2023-03-01T04:02:59;2.00;1.00
506;DHT22;551;48.524;9.056;2023-03-01T04:05:26;2.10;1.00
506;DHT22;551;48.524;9.056;2023-03-01T04:07:52;2.10;1.00
506;DHT22;551;48.524;9.056;2023-03-01T04:10:29;2.20;1.00
506;DHT22;551;48.524;9.056;2023-03-01T04:12:55;2.20;1.00
506;DHT22;551;48.524;9.056;2023-03-01T04:15:25;2.20;1.00
506;DHT22;551;48.524;9.056;2023-03-01T04:17:52;2.30;1.00
506;DHT22;551;48.524;9.056;2023-03-01T04:20:20;2.30;1.00
506;DHT22;551;48.524;9.056;2023-03-01T04:22:59;2.30;1.00
506;DHT22;551;48.524;9.056;2023-03-01T04:25:33;2.30;1.00
506;DHT22;551;48.524;9.056;2023-03-01T04:27:59;2.30;1.00
506;DHT22;551;48.524;9.056;2023-03-01T04:30:24;2.40;1.00
506;DHT22;551;48.524;9.056;2023-03-01T04:32:50;2.40;1.00
506;DHT22;551;48.524;9.056;2023-03-01T04:35:16;2.40;1.00
506;DHT22;551;48.524;9.056;2023-03-01T04:37:41;2.40;1.00
506;DHT22;551;48.524;9.056;2023-03-01T04:40:07;2.50;1.00
506;DHT22;551;48.524;9.056;2023-03-01T04:42:38;2.50;1.00
506;DHT22;551;48.524;9.056;2023-03-01T04:45:04;2.40;1.00
506;DHT22;551;48.524;9.056;2023-03-01T04:47:41;2.50;1.00
506;DHT22;551;48.524;9.056;2023-03-01T04:50:08;2.60;1.00
506;DHT22;551;48.524;9.056;2023-03-01T04:52:35;2.60;1.00
506;DHT22;551;48.524;9.056;2023-03-01T04:55:01;2.50;1.00
506;DHT22;551;48.524;9.056;2023-03-01T04:57:26;2.50;1.00
506;DHT22;551;48.524;9.056;2023-03-01T04:59:52;2.50;1.00
506;DHT22;551;48.524;9.056;2023-03-01T05:02:17;2.50;1.00
506;DHT22;551;48.524;9.056;2023-03-01T05:04:43;2.60;1.00
506;DHT22;551;48.524;9.056;2023-03-01T05:07:08;2.70;1.00
506;DHT22;551;48.524;9.056;2023-03-01T05:09:34;2.70;1.00
506;DHT22;551;48.524;9.056;2023-03-01T05:11:59;2.90;1.00
506;DHT22;551;48.524;9.056;2023-03-01T05:14:25;2.70;1.00
506;DHT22;551;48.524;9.056;2023-03-01T05:16:50;2.70;1.00
506;DHT22;551;48.524;9.056;2023-03-01T05:19:16;2.70;1.00
506;DHT22;551;48.524;9.056;2023-03-01T05:21:48;2.70;1.00
506;DHT22;551;48.524;9.056;2023-03-01T05:24:33;2.70;1.00
506;DHT22;551;48.524;9.056;2023-03-01T05:27:00;2.70;1.00
506;DHT22;551;48.524;9.056;2023-03-01T05:29:27;2.60;1.00
506;DHT22;551;48.524;9.056;2023-03-01T05:31:58;2.60;1.00
506;DHT22;551;48.524;9.056;2023-03-01T05:34:27;2.60;1.00
506;DHT22;551;48.524;9.056;2023-03-01T05:36:53;2.60;1.00
506;DHT22;551;48.524;9.056;2023-03-01T05:39:20;2.60;1.00
506;DHT22;551;48.524;9.056;2023-03-01T05:41:56;2.70;1.00
506;DHT22;551;48.524;9.056;2023-03-01T05:44:21;2.70;1.00
506;DHT22;551;48.524;9.056;2023-03-01T05:46:47;2.60;1.00
506;DHT22;551;48.524;9.056;2023-03-01T05:49:13;2.60;1.00
506;DHT22;551;48.524;9.056;2023-03-01T05:51:40;2.60;1.00
506;DHT22;551;48.524;9.056;2023-03-01T05:54:06;2.60;1.00
506;DHT22;551;48.524;9.056;2023-03-01T05:56:33;2.60;1.00
506;DHT22;551;48.524;9.056;2023-03-01T05:58:59;2.60;1.00
506;DHT22;551;48.524;9.056;2023-03-01T06:01:25;2.70;1.00
506;DHT22;551;48.524;9.056;2023-03-01T06:03:51;2.60;1.00
506;DHT22;551;48.524;9.056;2023-03-01T06:06:16;2.60;1.00
506;DHT22;551;48.524;9.056;2023-03-01T06:08:42;2.60;1.00
506;DHT22;551;48.524;9.056;2023-03-01T06:11:07;2.60;1.00
506;DHT22;551;48.524;9.056;2023-03-01T06:13:33;2.70;1.00
506;DHT22;551;48.524;9.056;2023-03-01T06:15:58;2.70;1.00
506;DHT22;551;48.524;9.056;2023-03-01T06:18:24;2.70;1.00
506;DHT22;551;48.524;9.056;2023-03-01T06:20:54;2.80;1.00
506;DHT22;551;48.524;9.056;2023-03-01T06:23:20;2.80;1.00
506;DHT22;551;48.524;9.056;2023-03-01T06:25:45;2.80;1.00
506;DHT22;551;48.524;9.056;2023-03-01T06:28:11;2.80;1.00
506;DHT22;551;48.524;9.056;2023-03-01T06:30:36;2.90;1.00
506;DHT22;551;48.524;9.056;2023-03-01T06:33:02;3.00;1.00
506;DHT22;551;48.524;9.056;2023-03-01T06:35:29;3.10;1.00
506;DHT22;551;48.524;9.056;2023-03-01T06:37:57;3.00;1.00
506;DHT22;551;48.524;9.056;2023-03-01T06:40:23;3.00;1.00
506;DHT22;551;48.524;9.056;2023-03-01T06:42:50;3.10;1.00
506;DHT22;551;48.524;9.056;2023-03-01T06:45:15;3.30;1.00
506;DHT22;551;48.524;9.056;2023-03-01T06:47:41;3.30;1.00
506;DHT22;551;48.524;9.056;2023-03-01T06:50:07;3.40;1.00
506;DHT22;551;48.524;9.056;2023-03-01T06:52:33;3.50;1.00
506;DHT22;551;48.524;9.056;2023-03-01T06:54:59;3.60;1.00
506;DHT22;551;48.524;9.056;2023-03-01T06:57:25;3.60;1.00
506;DHT22;551;48.524;9.056;2023-03-01T06:59:51;3.70;1.00
506;DHT22;551;48.524;9.056;2023-03-01T07:02:16;3.90;1.00
506;DHT22;551;48.524;9.056;2023-03-01T07:04:42;4.10;1.00
506;DHT22;551;48.524;9.056;2023-03-01T07:07:08;4.10;1.00
506;DHT22;551;48.524;9.056;2023-03-01T07:09:34;4.10;1.00
506;DHT22;551;48.524;9.056;2023-03-01T07:11:59;4.30;1.00
506;DHT22;551;48.524;9.056;2023-03-01T07:14:25;4.60;1.00
506;DHT22;551;48.524;9.056;2023-03-01T07:16:52;4.90;1.00
506;DHT22;551;48.524;9.056;2023-03-01T07:19:17;5.30;1.00
506;DHT22;551;48.524;9.056;2023-03-01T07:21:43;5.80;1.00
506;DHT22;551;48.524;9.056;2023-03-01T07:24:09;6.10;1.00
506;DHT22;551;48.524;9.056;2023-03-01T07:26:35;6.30;1.00
506;DHT22;551;48.524;9.056;2023-03-01T07:29:02;6.70;1.00
506;DHT22;551;48.524;9.056;2023-03-01T07:31:28;7.20;1.00
506;DHT22;551;48.524;9.056;2023-03-01T07:33:54;8.10;1.00
506;DHT22;551;48.524;9.056;2023-03-01T07:36:20;9.10;1.00
506;DHT22;551;48.524;9.056;2023-03-01T07:38:45;9.80;1.00
506;DHT22;551;48.524;9.056;2023-03-01T07:41:11;10.60;1.00
506;DHT22;551;48.524;9.056;2023-03-01T07:43:37;10.90;1.00
506;DHT22;551;48.524;9.056;2023-03-01T07:46:03;11.50;1.00
506;DHT22;551;48.524;9.056;2023-03-01T07:48:30;11.70;1.00
506;DHT22;551;48.524;9.056;2023-03-01T07:51:00;11.90;1.00
506;DHT22;551;48.524;9.056;2023-03-01T07:53:25;12.40;1.00
506;DHT22;551;48.524;9.056;2023-03-01T07:56:10;13.30;1.00
506;DHT22;551;48.524;9.056;2023-03-01T07:58:41;13.60;1.00
506;DHT22;551;48.524;9.056;2023-03-01T08:01:10;14.20;1.00
506;DHT22;551;48.524;9.056;2023-03-01T08:03:37;14.50;1.00
506;DHT22;551;48.524;9.056;2023-03-01T08:06:05;15.00;1.00
506;DHT22;551;48.524;9.056;2023-03-01T08:08:31;15.80;1.00
506;DHT22;551;48.524;9.056;2023-03-01T08:10:58;16.20;1.00
506;DHT22;551;48.524;9.056;2023-03-01T08:13:24;16.50;1.00
506;DHT22;551;48.524;9.056;2023-03-01T08:15:50;16.50;1.00
506;DHT22;551;48.524;9.056;2023-03-01T08:18:16;16.10;1.00
506;DHT22;551;48.524;9.056;2023-03-01T08:20:42;16.00;1.00
506;DHT22;551;48.524;9.056;2023-03-01T08:23:08;15.70;1.00
506;DHT22;551;48.524;9.056;2023-03-01T08:25:33;15.90;1.00
506;DHT22;551;48.524;9.056;2023-03-01T08:27:59;16.00;1.00
506;DHT22;551;48.524;9.056;2023-03-01T08:30:24;15.70;1.00
506;DHT22;551;48.524;9.056;2023-03-01T08:32:50;15.50;1.00
506;DHT22;551;48.524;9.056;2023-03-01T08:35:16;14.90;1.00
506;DHT22;551;48.524;9.056;2023-03-01T08:37:42;14.90;1.00
506;DHT22;551;48.524;9.056;2023-03-01T08:40:08;15.40;1.00
506;DHT22;551;48.524;9.056;2023-03-01T08:42:35;15.80;1.00
506;DHT22;551;48.524;9.056;2023-03-01T08:45:02;15.80;1.00
506;DHT22;551;48.524;9.056;2023-03-01T08:47:28;16.00;1.00
506;DHT22;551;48.524;9.056;2023-03-01T08:49:53;15.50;1.00
506;DHT22;551;48.524;9.056;2023-03-01T08:52:20;15.20;1.00
506;DHT22;551;48.524;9.056;2023-03-01T08:54:48;15.30;1.00
506;DHT22;551;48.524;9.056;2023-03-01T08:57:14;15.70;1.00
506;DHT22;551;48.524;9.056;2023-03-01T08:59:39;16.80;1.00
506;DHT22;551;48.524;9.056;2023-03-01T09:02:15;17.70;1.00
506;DHT22;551;48.524;9.056;2023-03-01T09:04:41;17.50;1.00
506;DHT22;551;48.524;9.056;2023-03-01T09:07:07;17.70;1.00
506;DHT22;551;48.524;9.056;2023-03-01T09:09:33;18.60;1.00
506;DHT22;551;48.524;9.056;2023-03-01T09:11:58;18.90;1.00
506;DHT22;551;48.524;9.056;2023-03-01T09:14:24;19.30;1.00
506;DHT22;551;48.524;9.056;2023-03-01T09:16:52;19.20;1.00
506;DHT22;551;48.524;9.056;2023-03-01T09:19:18;19.20;1.00
506;DHT22;551;48.524;9.056;2023-03-01T09:21:43;19.00;1.00
506;DHT22;551;48.524;9.056;2023-03-01T09:24:20;19.00;1.00
506;DHT22;551;48.524;9.056;2023-03-01T09:26:47;18.90;1.00
506;DHT22;551;48.524;9.056;2023-03-01T09:29:13;19.00;1.00
506;DHT22;551;48.524;9.056;2023-03-01T09:31:39;19.20;1.00
506;DHT22;551;48.524;9.056;2023-03-01T09:34:06;19.30;1.00
506;DHT22;551;48.524;9.056;2023-03-01T09:36:31;18.90;1.00
506;DHT22;551;48.524;9.056;2023-03-01T09:38:57;18.80;1.00
506;DHT22;551;48.524;9.056;2023-03-01T09:44:38;20.20;1.00
506;DHT22;551;48.524;9.056;2023-03-01T09:47:09;20.20;1.00
506;DHT22;551;48.524;9.056;2023-03-01T09:49:40;20.50;1.00
506;DHT22;551;48.524;9.056;2023-03-01T09:52:39;20.20;1.00
506;DHT22;551;48.524;9.056;2023-03-01T09:55:13;20.50;1.00
506;DHT22;551;48.524;9.056;2023-03-01T09:57:45;20.20;1.00
506;DHT22;551;48.524;9.056;2023-03-01T10:02:47;20.50;1.00
506;DHT22;551;48.524;9.056;2023-03-01T10:05:43;20.60;1.00
506;DHT22;551;48.524;9.056;2023-03-01T10:08:30;20.70;1.00
506;DHT22;551;48.524;9.056;2023-03-01T10:10:59;20.50;1.00
506;DHT22;551;48.524;9.056;2023-03-01T10:13:46;20.70;1.00
506;DHT22;551;48.524;9.056;2023-03-01T10:16:22;20.80;1.00
506;DHT22;551;48.524;9.056;2023-03-01T10:18:55;21.10;1.00
506;DHT22;551;48.524;9.056;2023-03-01T10:21:23;21.10;1.00
506;DHT22;551;48.524;9.056;2023-03-01T10:23:52;21.30;1.00
506;DHT22;551;48.524;9.056;2023-03-01T10:34:15;20.70;1.00
506;DHT22;551;48.524;9.056;2023-03-01T10:36:43;20.30;1.00
506;DHT22;551;48.524;9.056;2023-03-01T10:39:17;20.50;1.00
506;DHT22;551;48.524;9.056;2023-03-01T10:42:02;20.60;1.00
506;DHT22;551;48.524;9.056;2023-03-01T10:44:44;20.40;1.00
506;DHT22;551;48.524;9.056;2023-03-01T10:47:21;20.60;1.00
506;DHT22;551;48.524;9.056;2023-03-01T10:50:02;20.60;1.00
506;DHT22;551;48.524;9.056;2023-03-01T10:52:37;20.40;1.00
506;DHT22;551;48.524;9.056;2023-03-01T10:57:42;20.60;1.00
506;DHT22;551;48.524;9.056;2023-03-01T11:00:15;21.30;1.00
506;DHT22;551;48.524;9.056;2023-03-01T11:02:42;21.30;1.00
506;DHT22;551;48.524;9.056;2023-03-01T11:07:47;21.50;1.00
506;DHT22;551;48.524;9.056;2023-03-01T11:10:35;21.30;1.00
506;DHT22;551;48.524;9.056;2023-03-01T11:13:16;21.50;1.00
506;DHT22;551;48.524;9.056;2023-03-01T11:15:43;21.60;1.00
506;DHT22;551;48.524;9.056;2023-03-01T11:18:23;21.70;1.00
506;DHT22;551;48.524;9.056;2023-03-01T11:20:51;21.40;1.00
506;DHT22;551;48.524;9.056;2023-03-01T11:23:18;21.30;1.00
506;DHT22;551;48.524;9.056;2023-03-01T11:25:54;20.90;1.00
506;DHT22;551;48.524;9.056;2023-03-01T11:28:20;20.70;1.00
506;DHT22;551;48.524;9.056;2023-03-01T11:31:00;21.00;1.00
506;DHT22;551;48.524;9.056;2023-03-01T11:36:32;22.00;1.00
506;DHT22;551;48.524;9.056;2023-03-01T11:39:12;22.10;1.00
506;DHT22;551;48.524;9.056;2023-03-01T11:41:42;22.00;1.00
506;DHT22;551;48.524;9.056;2023-03-01T11:44:14;21.60;1.00
506;DHT22;551;48.524;9.056;2023-03-01T11:58:01;21.60;1.00
506;DHT22;551;48.524;9.056;2023-03-01T12:06:12;22.50;1.00
506;DHT22;551;48.524;9.056;2023-03-01T12:09:02;22.30;1.00
506;DHT22;551;48.524;9.056;2023-03-01T12:17:14;21.40;1.00
506;DHT22;551;48.524;9.056;2023-03-01T12:20:12;21.30;1.00
506;DHT22;551;48.524;9.056;2023-03-01T12:25:36;21.20;1.00
506;DHT22;551;48.524;9.056;2023-03-01T12:34:08;22.20;1.00
506;DHT22;551;48.524;9.056;2023-03-01T12:39:42;21.80;1.00
506;DHT22;551;48.524;9.056;2023-03-01T12:42:29;22.30;1.00
506;DHT22;551;48.524;9.056;2023-03-01T12:50:46;21.40;1.00
506;DHT22;551;48.524;9.056;2023-03-01T12:53:31;21.20;1.00
506;DHT22;551;48.524;9.056;2023-03-01T12:56:04;21.40;1.00
506;DHT22;551;48.524;9.056;2023-03-01T12:58:34;21.40;1.00
506;DHT22;551;48.524;9.056;2023-03-01T13:11:52;20.80;1.00
506;DHT22;551;48.524;9.056;2023-03-01T13:16:53;20.50;1.00
506;DHT22;551;48.524;9.056;2023-03-01T13:19:24;20.20;1.00
506;DHT22;551;48.524;9.056;2023-03-01T13:21:51;19.90;1.00
506;DHT22;551;48.524;9.056;2023-03-01T13:29:44;20.20;1.00
506;DHT22;551;48.524;9.056;2023-03-01T13:34:47;20.60;1.00
506;DHT22;551;48.524;9.056;2023-03-01T13:37:22;20.90;1.00
506;DHT22;551;48.524;9.056;2023-03-01T13:39:48;20.70;1.00
506;DHT22;551;48.524;9.056;2023-03-01T13:42:41;20.40;1.00
506;DHT22;551;48.524;9.056;2023-03-01T13:47:41;20.30;1.00
506;DHT22;551;48.524;9.056;2023-03-01T13:50:18;20.30;1.00
506;DHT22;551;48.524;9.056;2023-03-01T13:52:48;20.10;1.00
506;DHT22;551;48.524;9.056;2023-03-01T13:57:56;20.40;1.00
506;DHT22;551;48.524;9.056;2023-03-01T14:00:35;20.30;1.00
506;DHT22;551;48.524;9.056;2023-03-01T14:05:29;20.20;1.00
506;DHT22;551;48.524;9.056;2023-03-01T14:07:55;20.10;1.00
506;DHT22;551;48.524;9.056;2023-03-01T14:10:21;19.90;1.00
506;DHT22;551;48.524;9.056;2023-03-01T14:12:54;19.00;1.00
506;DHT22;551;48.524;9.056;2023-03-01T14:15:40;18.50;1.00
506;DHT22;551;48.524;9.056;2023-03-01T14:18:26;18.00;1.00
506;DHT22;551;48.524;9.056;2023-03-01T14:20:55;17.30;1.00
506;DHT22;551;48.524;9.056;2023-03-01T14:23:23;16.30;1.00
506;DHT22;551;48.524;9.056;2023-03-01T14:25:50;15.70;1.00
506;DHT22;551;48.524;9.056;2023-03-01T14:28:23;15.10;1.00
506;DHT22;551;48.524;9.056;2023-03-01T14:30:53;14.60;1.00
506;DHT22;551;48.524;9.056;2023-03-01T14:35:58;13.80;1.00
506;DHT22;551;48.524;9.056;2023-03-01T14:38:42;13.40;1.00
506;DHT22;551;48.524;9.056;2023-03-01T14:41:14;13.20;1.00
506;DHT22;551;48.524;9.056;2023-03-01T14:43:46;13.10;1.00
506;DHT22;551;48.524;9.056;2023-03-01T14:46:21;13.00;1.00
506;DHT22;551;48.524;9.056;2023-03-01T14:48:53;13.10;1.00
506;DHT22;551;48.524;9.056;2023-03-01T14:51:19;12.80;1.00
506;DHT22;551;48.524;9.056;2023-03-01T14:53:45;12.70;1.00
506;DHT22;551;48.524;9.056;2023-03-01T14:56:15;12.60;1.00
506;DHT22;551;48.524;9.056;2023-03-01T14:58:44;12.40;1.00
506;DHT22;551;48.524;9.056;2023-03-01T15:01:15;12.30;1.00
506;DHT22;551;48.524;9.056;2023-03-01T15:03:48;12.20;1.00
506;DHT22;551;48.524;9.056;2023-03-01T15:06:17;12.40;1.00
506;DHT22;551;48.524;9.056;2023-03-01T15:08:47;12.30;1.00
506;DHT22;551;48.524;9.056;2023-03-01T15:13:38;12.00;1.00
506;DHT22;551;48.524;9.056;2023-03-01T15:16:11;11.80;1.00
506;DHT22;551;48.524;9.056;2023-03-01T15:18:37;11.70;1.00
506;DHT22;551;48.524;9.056;2023-03-01T15:21:20;11.90;1.00
506;DHT22;551;48.524;9.056;2023-03-01T15:23:50;11.80;1.00
506;DHT22;551;48.524;9.056;2023-03-01T15:26:25;11.90;1.00
506;DHT22;551;48.524;9.056;2023-03-01T15:28:54;11.90;1.00
506;DHT22;551;48.524;9.056;2023-03-01T15:31:25;11.80;1.00
506;DHT22;551;48.524;9.056;2023-03-01T15:33:52;11.70;1.00
506;DHT22;551;48.524;9.056;2023-03-01T15:36:39;11.80;1.00
506;DHT22;551;48.524;9.056;2023-03-01T15:39:22;11.60;1.00
506;DHT22;551;48.524;9.056;2023-03-01T15:41:50;11.40;1.00
506;DHT22;551;48.524;9.056;2023-03-01T15:44:28;11.20;1.00
506;DHT22;551;48.524;9.056;2023-03-01T15:46:54;11.00;1.00
506;DHT22;551;48.524;9.056;2023-03-01T15:49:41;10.90;1.00
506;DHT22;551;48.524;9.056;2023-03-01T15:52:19;10.90;1.00
506;DHT22;551;48.524;9.056;2023-03-01T15:54:46;10.90;1.00
506;DHT22;551;48.524;9.056;2023-03-01T15:57:13;10.70;1.00
506;DHT22;551;48.524;9.056;2023-03-01T15:59:42;10.50;1.00
506;DHT22;551;48.524;9.056;2023-03-01T16:02:10;10.50;1.00
506;DHT22;551;48.524;9.056;2023-03-01T16:04:38;10.50;1.00
506;DHT22;551;48.524;9.056;2023-03-01T16:07:04;10.30;1.00
506;DHT22;551;48.524;9.056;2023-03-01T16:09:29;10.30;1.00
506;DHT22;551;48.524;9.056;2023-03-01T16:11:55;10.20;1.00
506;DHT22;551;48.524;9.056;2023-03-01T16:14:21;10.20;1.00
506;DHT22;551;48.524;9.056;2023-03-01T16:16:47;10.10;1.00
506;DHT22;551;48.524;9.056;2023-03-01T16:19:16;10.00;1.00
506;DHT22;551;48.524;9.056;2023-03-01T16:21:42;9.90;1.00
506;DHT22;551;48.524;9.056;2023-03-01T16:24:14;9.80;1.00
506;DHT22;551;48.524;9.056;2023-03-01T16:26:40;9.70;1.00
506;DHT22;551;48.524;9.056;2023-03-01T16:29:07;9.80;1.00
506;DHT22;551;48.524;9.056;2023-03-01T16:31:32;9.80;1.00
506;DHT22;551;48.524;9.056;2023-03-01T16:33:58;9.80;1.00
506;DHT22;551;48.524;9.056;2023-03-01T16:36:26;9.70;1.00
506;DHT22;551;48.524;9.056;2023-03-01T16:38:53;9.60;1.00
506;DHT22;551;48.524;9.056;2023-03-01T16:41:21;9.50;1.00
506;DHT22;551;48.524;9.056;2023-03-01T16:43:49;9.40;1.00
506;DHT22;551;48.524;9.056;2023-03-01T16:46:20;9.40;1.00
506;DHT22;551;48.524;9.056;2023-03-01T16:48:46;9.40;1.00
506;DHT22;551;48.524;9.056;2023-03-01T16:51:12;9.30;1.00
506;DHT22;551;48.524;9.056;2023-03-01T16:53:38;9.20;1.00
506;DHT22;551;48.524;9.056;2023-03-01T16:56:06;9.20;1.00
506;DHT22;551;48.524;9.056;2023-03-01T16:58:33;9.10;1.00
506;DHT22;551;48.524;9.056;2023-03-01T17:01:04;9.00;1.00
506;DHT22;551;48.524;9.056;2023-03-01T17:03:30;9.00;1.00
506;DHT22;551;48.524;9.056;2023-03-01T17:05:56;9.00;1.00
506;DHT22;551;48.524;9.056;2023-03-01T17:08:22;8.90;1.00
506;DHT22;551;48.524;9.056;2023-03-01T17:10:47;8.80;1.00
506;DHT22;551;48.524;9.056;2023-03-01T17:13:13;8.80;1.00
506;DHT22;551;48.524;9.056;2023-03-01T17:15:41;8.60;1.00
506;DHT22;551;48.524;9.056;2023-03-01T17:18:08;8.60;1.00
506;DHT22;551;48.524;9.056;2023-03-01T17:20:34;8.50;1.00
506;DHT22;551;48.524;9.056;2023-03-01T17:23:00;8.40;1.00
506;DHT22;551;48.524;9.056;2023-03-01T17:25:25;8.40;1.00
506;DHT22;551;48.524;9.056;2023-03-01T17:27:51;8.30;1.00
506;DHT22;551;48.524;9.056;2023-03-01T17:30:17;8.20;1.00
506;DHT22;551;48.524;9.056;2023-03-01T17:32:42;8.20;1.00
506;DHT22;551;48.524;9.056;2023-03-01T17:35:08;8.10;1.00
506;DHT22;551;48.524;9.056;2023-03-01T17:37:36;8.00;1.00
506;DHT22;551;48.524;9.056;2023-03-01T17:40:04;8.00;1.00
506;DHT22;551;48.524;9.056;2023-03-01T17:42:30;8.00;1.00
506;DHT22;551;48.524;9.056;2023-03-01T17:44:55;7.90;1.00
506;DHT22;551;48.524;9.056;2023-03-01T17:47:21;7.90;1.00
506;DHT22;551;48.524;9.056;2023-03-01T17:49:46;7.90;1.00
506;DHT22;551;48.524;9.056;2023-03-01T17:52:12;7.90;1.00
506;DHT22;551;48.524;9.056;2023-03-01T17:54:37;7.90;1.00
506;DHT22;551;48.524;9.056;2023-03-01T17:57:03;7.80;1.00
506;DHT22;551;48.524;9.056;2023-03-01T17:59:28;7.90;1.00
506;DHT22;551;48.524;9.056;2023-03-01T18:01:57;7.90;1.00
506;DHT22;551;48.524;9.056;2023-03-01T18:04:23;7.90;1.00
506;DHT22;551;48.524;9.056;2023-03-01T18:06:48;7.90;1.00
506;DHT22;551;48.524;9.056;2023-03-01T18:09:14;8.00;1.00
506;DHT22;551;48.524;9.056;2023-03-01T18:11:39;8.00;1.00
506;DHT22;551;48.524;9.056;2023-03-01T18:14:06;8.10;1.00
506;DHT22;551;48.524;9.056;2023-03-01T18:16:33;8.10;1.00
506;DHT22;551;48.524;9.056;2023-03-01T18:18:59;8.10;1.00
506;DHT22;551;48.524;9.056;2023-03-01T18:21:26;8.10;1.00
506;DHT22;551;48.524;9.056;2023-03-01T18:23:52;8.10;1.00
506;DHT22;551;48.524;9.056;2023-03-01T18:26:18;8.10;1.00
506;DHT22;551;48.524;9.056;2023-03-01T18:28:47;8.00;1.00
506;DHT22;551;48.524;9.056;2023-03-01T18:31:15;8.00;1.00
506;DHT22;551;48.524;9.056;2023-03-01T18:33:46;7.90;1.00
506;DHT22;551;48.524;9.056;2023-03-01T18:36:22;7.90;1.00
506;DHT22;551;48.524;9.056;2023-03-01T18:38:47;7.90;1.00
506;DHT22;551;48.524;9.056;2023-03-01T18:41:14;7.90;1.00
506;DHT22;551;48.524;9.056;2023-03-01T18:43:40;7.90;1.00
506;DHT22;551;48.524;9.056;2023-03-01T18:46:06;7.90;1.00
506;DHT22;551;48.524;9.056;2023-03-01T18:48:31;7.90;1.00
506;DHT22;551;48.524;9.056;2023-03-01T18:50:57;7.80;1.00
506;DHT22;551;48.524;9.056;2023-03-01T18:53:31;7.80;1.00
506;DHT22;551;48.524;9.056;2023-03-01T18:55:58;7.80;1.00
506;DHT22;551;48.524;9.056;2023-03-01T18:58:24;7.80;1.00
506;DHT22;551;48.524;9.056;2023-03-01T19:00:49;7.80;1.00
506;DHT22;551;48.524;9.056;2023-03-01T19:03:15;7.80;1.00